K40B

Clayton Lake Airport

Clayton Lake, Maine, USA
METAR K40B 181116Z AUTO 24007G17KT 180V310 M02/M04 A2982 RMK AO1 SLP118 T10231036 51021 P0000
Observed Flight Rules
Oct-18 @ 11:16 UTC (58 minutes ago)
Wind
240° at 7 knots
 Gusting to 17 knots
Temperatures Readings Precipitation
Current -2°C / 28°F
Dewpoint -4°C / 25°F
Humidity 86%
Altimeter 29.82" Hg
Pressure 1011.8 hPa
Elevation 314
Current Rain 0.005
METAR K40B 181116Z AUTO 24007G17KT 180V310 M02/M04 A2982 RMK AO1 SLP118 T10231036 51021 P0000
Observed Flight Rules
Oct-18 @ 11:16 UTC
(58 minutes ago)
Wind
240° at 7 knots
 Gusting to 17 knots
Temperature Dewpoint
-2°C / 28°F -4°C / 25°F
Humidity Altimeter Pressure
86% 29.82" Hg 1011.8 hPa
Current Rain
0.005